KMVN

Mount Vernon Airport

Mount Vernon, Illinois, USA
METAR KMVN 201956Z AUTO 20011KT 10SM BKN034 30/22 A2982 RMK AO2 SLP091 T03000222
Observed Flight Rules
Aug-20 @ 19:56 UTC (35 minutes ago) Visual Flight Rules
Wind Visibility Clouds
200° at 11 knots 10 miles
  • Broken at 3,400' AGL
Temperatures Readings
Current 30°C / 86°F
Dewpoint 22°C / 72°F
Humidity 62%
Altimeter 29.82" Hg
Pressure 1009.1 hPa
Elevation 146
METAR KMVN 201956Z AUTO 20011KT 10SM BKN034 30/22 A2982 RMK AO2 SLP091 T03000222
Observed Flight Rules
Aug-20 @ 19:56 UTC
(35 minutes ago)
VFR
Wind Visibility
200° at 11 knots 10 miles
Clouds
  • Broken at 3,400' AGL
Temperature Dewpoint
30°C / 86°F 22°C / 72°F
Humidity Altimeter Pressure
62% 29.82" Hg 1009.1 hPa